sensor_id;sensor_type;location;lat;lon;timestamp;temperature;humidity
13198;DHT22;6664;52.514;13.440;2023-07-02T00:00:12;18.00;54.30
13198;DHT22;6664;52.514;13.440;2023-07-02T00:03:01;18.00;54.50
13198;DHT22;6664;52.514;13.440;2023-07-02T00:05:47;18.00;54.60
13198;DHT22;6664;52.514;13.440;2023-07-02T00:08:35;18.00;54.30
13198;DHT22;6664;52.514;13.440;2023-07-02T00:11:21;18.00;54.70
13198;DHT22;6664;52.514;13.440;2023-07-02T00:14:10;18.00;54.30
13198;DHT22;6664;52.514;13.440;2023-07-02T00:16:56;18.00;54.60
13198;DHT22;6664;52.514;13.440;2023-07-02T00:19:41;18.00;54.60
13198;DHT22;6664;52.514;13.440;2023-07-02T00:22:30;18.00;55.20
13198;DHT22;6664;52.514;13.440;2023-07-02T00:25:16;17.90;55.00
13198;DHT22;6664;52.514;13.440;2023-07-02T00:28:03;17.90;54.90
13198;DHT22;6664;52.514;13.440;2023-07-02T00:30:51;17.90;55.90
13198;DHT22;6664;52.514;13.440;2023-07-02T00:33:37;17.70;56.50
13198;DHT22;6664;52.514;13.440;2023-07-02T00:36:22;17.80;56.60
13198;DHT22;6664;52.514;13.440;2023-07-02T00:39:08;17.70;56.60
13198;DHT22;6664;52.514;13.440;2023-07-02T00:42:02;17.70;57.00
13198;DHT22;6664;52.514;13.440;2023-07-02T00:44:49;17.70;57.00
13198;DHT22;6664;52.514;13.440;2023-07-02T00:47:37;17.60;57.50
13198;DHT22;6664;52.514;13.440;2023-07-02T00:50:27;17.70;57.10
13198;DHT22;6664;52.514;13.440;2023-07-02T00:53:13;17.70;57.40
13198;DHT22;6664;52.514;13.440;2023-07-02T00:55:58;17.60;57.50
13198;DHT22;6664;52.514;13.440;2023-07-02T00:58:47;17.60;57.60
13198;DHT22;6664;52.514;13.440;2023-07-02T01:01:36;17.60;57.70
13198;DHT22;6664;52.514;13.440;2023-07-02T01:04:23;17.60;57.70
13198;DHT22;6664;52.514;13.440;2023-07-02T01:07:13;17.60;57.30
13198;DHT22;6664;52.514;13.440;2023-07-02T01:10:01;17.70;56.90
13198;DHT22;6664;52.514;13.440;2023-07-02T01:12:50;17.70;56.90
13198;DHT22;6664;52.514;13.440;2023-07-02T01:15:37;17.70;56.20
13198;DHT22;6664;52.514;13.440;2023-07-02T01:18:23;17.70;56.20
13198;DHT22;6664;52.514;13.440;2023-07-02T01:21:11;17.60;56.00
13198;DHT22;6664;52.514;13.440;2023-07-02T01:23:58;17.60;55.70
13198;DHT22;6664;52.514;13.440;2023-07-02T01:26:46;17.50;55.10
13198;DHT22;6664;52.514;13.440;2023-07-02T01:29:32;17.60;55.10
13198;DHT22;6664;52.514;13.440;2023-07-02T01:32:22;17.50;54.80
13198;DHT22;6664;52.514;13.440;2023-07-02T01:35:08;17.50;54.70
13198;DHT22;6664;52.514;13.440;2023-07-02T01:37:55;17.50;55.30
13198;DHT22;6664;52.514;13.440;2023-07-02T01:40:41;17.50;55.00
13198;DHT22;6664;52.514;13.440;2023-07-02T01:43:29;17.40;54.90
13198;DHT22;6664;52.514;13.440;2023-07-02T01:46:16;17.50;54.90
13198;DHT22;6664;52.514;13.440;2023-07-02T01:49:02;17.50;55.00
13198;DHT22;6664;52.514;13.440;2023-07-02T01:51:51;17.40;55.00
13198;DHT22;6664;52.514;13.440;2023-07-02T01:54:38;17.40;54.70
13198;DHT22;6664;52.514;13.440;2023-07-02T01:57:24;17.40;54.50
13198;DHT22;6664;52.514;13.440;2023-07-02T02:00:10;17.40;54.80
13198;DHT22;6664;52.514;13.440;2023-07-02T02:02:58;17.40;54.20
13198;DHT22;6664;52.514;13.440;2023-07-02T02:05:44;17.30;54.40
13198;DHT22;6664;52.514;13.440;2023-07-02T02:08:33;17.20;54.40
13198;DHT22;6664;52.514;13.440;2023-07-02T02:11:18;17.20;54.50
13198;DHT22;6664;52.514;13.440;2023-07-02T02:14:04;17.20;54.30
13198;DHT22;6664;52.514;13.440;2023-07-02T02:16:50;17.10;53.90
13198;DHT22;6664;52.514;13.440;2023-07-02T02:19:37;17.10;54.00
13198;DHT22;6664;52.514;13.440;2023-07-02T02:22:23;17.10;54.20
13198;DHT22;6664;52.514;13.440;2023-07-02T02:25:12;17.00;54.10
13198;DHT22;6664;52.514;13.440;2023-07-02T02:27:58;17.00;54.20
13198;DHT22;6664;52.514;13.440;2023-07-02T02:30:44;17.00;54.10
13198;DHT22;6664;52.514;13.440;2023-07-02T02:33:32;17.00;54.10
13198;DHT22;6664;52.514;13.440;2023-07-02T02:36:20;17.00;54.30
13198;DHT22;6664;52.514;13.440;2023-07-02T02:39:06;17.00;53.90
13198;DHT22;6664;52.514;13.440;2023-07-02T02:41:52;17.00;54.00
13198;DHT22;6664;52.514;13.440;2023-07-02T02:44:38;17.00;53.40
13198;DHT22;6664;52.514;13.440;2023-07-02T02:47:24;17.00;52.80
13198;DHT22;6664;52.514;13.440;2023-07-02T02:50:12;16.90;52.90
13198;DHT22;6664;52.514;13.440;2023-07-02T02:52:59;16.90;53.40
13198;DHT22;6664;52.514;13.440;2023-07-02T02:55:47;16.90;53.30
13198;DHT22;6664;52.514;13.440;2023-07-02T02:58:35;16.90;53.30
13198;DHT22;6664;52.514;13.440;2023-07-02T03:01:21;16.90;53.20
13198;DHT22;6664;52.514;13.440;2023-07-02T03:04:07;16.90;53.30
13198;DHT22;6664;52.514;13.440;2023-07-02T03:06:56;16.90;52.80
13198;DHT22;6664;52.514;13.440;2023-07-02T03:09:42;17.00;52.90
13198;DHT22;6664;52.514;13.440;2023-07-02T03:12:29;17.10;52.80
13198;DHT22;6664;52.514;13.440;2023-07-02T03:15:14;17.00;52.80
13198;DHT22;6664;52.514;13.440;2023-07-02T03:18:00;17.10;52.80
13198;DHT22;6664;52.514;13.440;2023-07-02T03:20:49;17.00;52.70
13198;DHT22;6664;52.514;13.440;2023-07-02T03:23:35;17.00;52.70
13198;DHT22;6664;52.514;13.440;2023-07-02T03:26:23;16.90;52.60
13198;DHT22;6664;52.514;13.440;2023-07-02T03:29:10;17.00;52.70
13198;DHT22;6664;52.514;13.440;2023-07-02T03:31:58;17.00;52.60
13198;DHT22;6664;52.514;13.440;2023-07-02T03:34:44;17.00;52.50
13198;DHT22;6664;52.514;13.440;2023-07-02T03:37:29;16.90;52.20
13198;DHT22;6664;52.514;13.440;2023-07-02T03:40:16;17.00;51.80
13198;DHT22;6664;52.514;13.440;2023-07-02T03:43:02;16.90;51.10
13198;DHT22;6664;52.514;13.440;2023-07-02T03:45:48;16.90;51.40
13198;DHT22;6664;52.514;13.440;2023-07-02T03:48:33;16.90;50.20
13198;DHT22;6664;52.514;13.440;2023-07-02T03:51:19;16.90;50.00
13198;DHT22;6664;52.514;13.440;2023-07-02T03:54:06;16.90;49.70
13198;DHT22;6664;52.514;13.440;2023-07-02T03:56:52;17.00;50.40
13198;DHT22;6664;52.514;13.440;2023-07-02T03:59:40;16.90;49.10
13198;DHT22;6664;52.514;13.440;2023-07-02T04:02:25;16.90;48.60
13198;DHT22;6664;52.514;13.440;2023-07-02T04:05:14;16.90;48.00
13198;DHT22;6664;52.514;13.440;2023-07-02T04:08:00;16.90;48.50
13198;DHT22;6664;52.514;13.440;2023-07-02T04:10:48;16.90;47.90
13198;DHT22;6664;52.514;13.440;2023-07-02T04:13:34;17.00;47.60
13198;DHT22;6664;52.514;13.440;2023-07-02T04:16:23;17.00;47.50
13198;DHT22;6664;52.514;13.440;2023-07-02T04:19:09;17.00;47.20
13198;DHT22;6664;52.514;13.440;2023-07-02T04:21:57;17.10;46.90
13198;DHT22;6664;52.514;13.440;2023-07-02T04:24:43;17.20;46.10
13198;DHT22;6664;52.514;13.440;2023-07-02T04:27:38;17.10;45.60
13198;DHT22;6664;52.514;13.440;2023-07-02T04:30:35;16.90;45.90
13198;DHT22;6664;52.514;13.440;2023-07-02T04:33:21;16.80;46.30
13198;DHT22;6664;52.514;13.440;2023-07-02T04:36:10;16.90;45.70
13198;DHT22;6664;52.514;13.440;2023-07-02T04:38:56;16.90;45.60
13198;DHT22;6664;52.514;13.440;2023-07-02T04:41:42;17.10;45.20
13198;DHT22;6664;52.514;13.440;2023-07-02T04:44:30;17.10;44.70
13198;DHT22;6664;52.514;13.440;2023-07-02T04:47:17;17.20;44.20
13198;DHT22;6664;52.514;13.440;2023-07-02T04:50:03;17.20;43.90
13198;DHT22;6664;52.514;13.440;2023-07-02T04:52:49;17.20;43.90
13198;DHT22;6664;52.514;13.440;2023-07-02T04:55:35;17.20;43.10
13198;DHT22;6664;52.514;13.440;2023-07-02T04:58:21;17.10;43.70
13198;DHT22;6664;52.514;13.440;2023-07-02T05:01:07;17.00;44.00
13198;DHT22;6664;52.514;13.440;2023-07-02T05:03:56;17.00;42.40
13198;DHT22;6664;52.514;13.440;2023-07-02T05:06:42;17.00;43.80
13198;DHT22;6664;52.514;13.440;2023-07-02T05:09:27;17.10;43.60
13198;DHT22;6664;52.514;13.440;2023-07-02T05:12:13;17.20;43.90
13198;DHT22;6664;52.514;13.440;2023-07-02T05:15:00;17.20;42.70
13198;DHT22;6664;52.514;13.440;2023-07-02T05:17:45;17.20;42.40
13198;DHT22;6664;52.514;13.440;2023-07-02T05:20:31;17.30;42.40
13198;DHT22;6664;52.514;13.440;2023-07-02T05:23:17;17.40;41.40
13198;DHT22;6664;52.514;13.440;2023-07-02T05:26:04;17.60;40.00
13198;DHT22;6664;52.514;13.440;2023-07-02T05:28:50;17.70;39.20
13198;DHT22;6664;52.514;13.440;2023-07-02T05:31:36;17.70;38.90
13198;DHT22;6664;52.514;13.440;2023-07-02T05:34:22;17.80;38.80
13198;DHT22;6664;52.514;13.440;2023-07-02T05:37:08;17.90;38.00
13198;DHT22;6664;52.514;13.440;2023-07-02T05:39:56;17.80;38.20
13198;DHT22;6664;52.514;13.440;2023-07-02T05:42:45;17.90;37.60
13198;DHT22;6664;52.514;13.440;2023-07-02T05:45:31;17.90;37.30
13198;DHT22;6664;52.514;13.440;2023-07-02T05:48:20;18.20;36.60
13198;DHT22;6664;52.514;13.440;2023-07-02T05:51:07;18.30;35.10
13198;DHT22;6664;52.514;13.440;2023-07-02T05:53:55;17.80;34.60
13198;DHT22;6664;52.514;13.440;2023-07-02T05:56:44;17.50;36.30
13198;DHT22;6664;52.514;13.440;2023-07-02T05:59:32;17.40;37.10
13198;DHT22;6664;52.514;13.440;2023-07-02T06:02:20;17.30;37.10
13198;DHT22;6664;52.514;13.440;2023-07-02T06:05:07;17.30;36.80
13198;DHT22;6664;52.514;13.440;2023-07-02T06:07:55;17.40;37.10
13198;DHT22;6664;52.514;13.440;2023-07-02T06:10:42;17.70;36.20
13198;DHT22;6664;52.514;13.440;2023-07-02T06:13:28;17.90;33.90
13198;DHT22;6664;52.514;13.440;2023-07-02T06:16:17;18.10;32.60
13198;DHT22;6664;52.514;13.440;2023-07-02T06:19:03;18.50;32.20
13198;DHT22;6664;52.514;13.440;2023-07-02T06:21:48;18.80;30.00
13198;DHT22;6664;52.514;13.440;2023-07-02T06:24:39;19.20;28.90
13198;DHT22;6664;52.514;13.440;2023-07-02T06:27:25;19.30;27.90
13198;DHT22;6664;52.514;13.440;2023-07-02T06:30:11;19.10;26.80
13198;DHT22;6664;52.514;13.440;2023-07-02T06:32:57;19.40;27.00
13198;DHT22;6664;52.514;13.440;2023-07-02T06:35:43;19.40;25.00
13198;DHT22;6664;52.514;13.440;2023-07-02T06:38:29;19.50;24.40
13198;DHT22;6664;52.514;13.440;2023-07-02T06:41:17;19.10;23.70
13198;DHT22;6664;52.514;13.440;2023-07-02T06:44:03;19.10;25.00
13198;DHT22;6664;52.514;13.440;2023-07-02T06:46:49;18.80;24.90
13198;DHT22;6664;52.514;13.440;2023-07-02T06:49:36;18.60;26.10
13198;DHT22;6664;52.514;13.440;2023-07-02T06:52:22;18.60;26.80
13198;DHT22;6664;52.514;13.440;2023-07-02T06:55:11;18.80;25.60
13198;DHT22;6664;52.514;13.440;2023-07-02T06:57:57;19.00;24.90
13198;DHT22;6664;52.514;13.440;2023-07-02T07:00:42;19.40;24.70
13198;DHT22;6664;52.514;13.440;2023-07-02T07:03:28;19.80;24.20
13198;DHT22;6664;52.514;13.440;2023-07-02T07:06:14;20.10;23.30
13198;DHT22;6664;52.514;13.440;2023-07-02T07:09:00;20.10;23.20
13198;DHT22;6664;52.514;13.440;2023-07-02T07:11:47;20.50;22.20
13198;DHT22;6664;52.514;13.440;2023-07-02T07:14:33;20.40;21.50
13198;DHT22;6664;52.514;13.440;2023-07-02T07:17:19;20.60;21.40
13198;DHT22;6664;52.514;13.440;2023-07-02T07:20:05;20.50;20.40
13198;DHT22;6664;52.514;13.440;2023-07-02T07:22:51;20.60;20.50
13198;DHT22;6664;52.514;13.440;2023-07-02T07:25:37;20.30;20.20
13198;DHT22;6664;52.514;13.440;2023-07-02T07:28:24;20.00;20.80
13198;DHT22;6664;52.514;13.440;2023-07-02T07:31:09;19.60;20.60
13198;DHT22;6664;52.514;13.440;2023-07-02T07:33:58;19.30;22.30
13198;DHT22;6664;52.514;13.440;2023-07-02T07:36:46;19.00;21.50
13198;DHT22;6664;52.514;13.440;2023-07-02T07:39:32;19.50;21.70
13198;DHT22;6664;52.514;13.440;2023-07-02T07:42:17;20.20;20.00
13198;DHT22;6664;52.514;13.440;2023-07-02T07:45:06;19.90;19.00
13198;DHT22;6664;52.514;13.440;2023-07-02T07:47:52;20.40;19.20
13198;DHT22;6664;52.514;13.440;2023-07-02T07:50:41;20.60;18.10
13198;DHT22;6664;52.514;13.440;2023-07-02T07:53:27;20.30;18.70
13198;DHT22;6664;52.514;13.440;2023-07-02T07:56:13;19.90;19.50
13198;DHT22;6664;52.514;13.440;2023-07-02T07:58:58;19.80;19.90
13198;DHT22;6664;52.514;13.440;2023-07-02T08:01:44;19.60;20.30
13198;DHT22;6664;52.514;13.440;2023-07-02T08:04:32;19.60;21.10
13198;DHT22;6664;52.514;13.440;2023-07-02T08:07:18;19.50;21.20
13198;DHT22;6664;52.514;13.440;2023-07-02T08:10:04;19.50;21.60
13198;DHT22;6664;52.514;13.440;2023-07-02T08:12:50;19.40;21.70
13198;DHT22;6664;52.514;13.440;2023-07-02T08:15:38;19.20;22.30
13198;DHT22;6664;52.514;13.440;2023-07-02T08:18:26;19.20;23.10
13198;DHT22;6664;52.514;13.440;2023-07-02T08:21:14;19.20;23.30
13198;DHT22;6664;52.514;13.440;2023-07-02T08:24:00;19.40;22.80
13198;DHT22;6664;52.514;13.440;2023-07-02T08:26:49;19.20;22.50
13198;DHT22;6664;52.514;13.440;2023-07-02T08:29:35;19.10;23.10
13198;DHT22;6664;52.514;13.440;2023-07-02T08:32:21;19.30;22.70
13198;DHT22;6664;52.514;13.440;2023-07-02T08:35:07;19.50;21.80
13198;DHT22;6664;52.514;13.440;2023-07-02T08:38:00;19.50;22.00
13198;DHT22;6664;52.514;13.440;2023-07-02T08:40:52;19.50;21.90
13198;DHT22;6664;52.514;13.440;2023-07-02T08:43:38;19.70;21.80
13198;DHT22;6664;52.514;13.440;2023-07-02T08:46:25;19.50;21.00
13198;DHT22;6664;52.514;13.440;2023-07-02T08:49:10;19.60;20.60
13198;DHT22;6664;52.514;13.440;2023-07-02T08:51:56;19.60;18.50
13198;DHT22;6664;52.514;13.440;2023-07-02T08:54:42;19.60;18.40
13198;DHT22;6664;52.514;13.440;2023-07-02T08:57:28;19.70;18.80
13198;DHT22;6664;52.514;13.440;2023-07-02T09:00:16;20.10;17.50
13198;DHT22;6664;52.514;13.440;2023-07-02T09:03:13;20.10;16.30
13198;DHT22;6664;52.514;13.440;2023-07-02T09:06:00;20.00;15.30
13198;DHT22;6664;52.514;13.440;2023-07-02T09:08:46;20.10;14.40
13198;DHT22;6664;52.514;13.440;2023-07-02T09:11:32;20.40;14.60
13198;DHT22;6664;52.514;13.440;2023-07-02T09:14:44;20.50;13.10
13198;DHT22;6664;52.514;13.440;2023-07-02T09:17:34;20.80;13.10
13198;DHT22;6664;52.514;13.440;2023-07-02T09:20:21;21.20;12.40
13198;DHT22;6664;52.514;13.440;2023-07-02T09:23:07;21.00;10.30
13198;DHT22;6664;52.514;13.440;2023-07-02T09:25:53;21.20;11.20
13198;DHT22;6664;52.514;13.440;2023-07-02T09:28:39;21.30;9.50
13198;DHT22;6664;52.514;13.440;2023-07-02T09:31:28;21.10;10.90
13198;DHT22;6664;52.514;13.440;2023-07-02T09:34:15;21.40;10.30
13198;DHT22;6664;52.514;13.440;2023-07-02T09:37:02;21.50;10.00
13198;DHT22;6664;52.514;13.440;2023-07-02T09:39:53;21.10;9.80
13198;DHT22;6664;52.514;13.440;2023-07-02T09:42:45;20.90;10.20
13198;DHT22;6664;52.514;13.440;2023-07-02T09:45:43;20.30;11.40
13198;DHT22;6664;52.514;13.440;2023-07-02T09:48:33;20.40;11.40
13198;DHT22;6664;52.514;13.440;2023-07-02T09:51:21;20.20;11.60
13198;DHT22;6664;52.514;13.440;2023-07-02T09:54:10;19.90;12.30
13198;DHT22;6664;52.514;13.440;2023-07-02T09:57:00;19.70;12.20
13198;DHT22;6664;52.514;13.440;2023-07-02T09:59:47;20.10;12.50
13198;DHT22;6664;52.514;13.440;2023-07-02T10:02:33;20.30;12.20
13198;DHT22;6664;52.514;13.440;2023-07-02T10:05:33;20.30;12.50
13198;DHT22;6664;52.514;13.440;2023-07-02T10:08:19;20.10;11.40
13198;DHT22;6664;52.514;13.440;2023-07-02T10:11:12;20.00;12.50
13198;DHT22;6664;52.514;13.440;2023-07-02T10:14:04;20.10;12.80
13198;DHT22;6664;52.514;13.440;2023-07-02T10:16:54;20.50;12.70
13198;DHT22;6664;52.514;13.440;2023-07-02T10:19:52;21.00;12.10
13198;DHT22;6664;52.514;13.440;2023-07-02T10:22:49;20.10;12.00
13198;DHT22;6664;52.514;13.440;2023-07-02T10:25:39;20.50;12.80
13198;DHT22;6664;52.514;13.440;2023-07-02T10:28:27;20.80;11.70
13198;DHT22;6664;52.514;13.440;2023-07-02T10:31:20;21.60;11.40
13198;DHT22;6664;52.514;13.440;2023-07-02T10:34:07;21.70;10.70
13198;DHT22;6664;52.514;13.440;2023-07-02T10:36:56;21.30;11.60
13198;DHT22;6664;52.514;13.440;2023-07-02T10:39:43;21.10;10.90
13198;DHT22;6664;52.514;13.440;2023-07-02T10:42:28;21.10;11.40
13198;DHT22;6664;52.514;13.440;2023-07-02T10:45:15;21.70;11.80
13198;DHT22;6664;52.514;13.440;2023-07-02T10:48:08;22.40;10.20
13198;DHT22;6664;52.514;13.440;2023-07-02T10:50:55;21.80;10.10
13198;DHT22;6664;52.514;13.440;2023-07-02T10:53:41;21.70;9.80
13198;DHT22;6664;52.514;13.440;2023-07-02T10:56:27;22.20;9.50
13198;DHT22;6664;52.514;13.440;2023-07-02T10:59:25;21.70;8.90
13198;DHT22;6664;52.514;13.440;2023-07-02T11:02:12;21.90;9.40
13198;DHT22;6664;52.514;13.440;2023-07-02T11:04:58;22.10;8.10
13198;DHT22;6664;52.514;13.440;2023-07-02T11:07:44;21.50;8.40
13198;DHT22;6664;52.514;13.440;2023-07-02T11:10:30;22.00;8.10
13198;DHT22;6664;52.514;13.440;2023-07-02T11:13:20;21.70;8.40
13198;DHT22;6664;52.514;13.440;2023-07-02T11:16:20;21.30;9.40
13198;DHT22;6664;52.514;13.440;2023-07-02T11:19:07;20.90;10.20
13198;DHT22;6664;52.514;13.440;2023-07-02T11:21:56;21.00;10.00
13198;DHT22;6664;52.514;13.440;2023-07-02T11:24:43;20.40;11.10
13198;DHT22;6664;52.514;13.440;2023-07-02T11:27:31;20.30;11.80
13198;DHT22;6664;52.514;13.440;2023-07-02T11:30:17;20.50;12.00
13198;DHT22;6664;52.514;13.440;2023-07-02T11:33:03;20.80;11.20
13198;DHT22;6664;52.514;13.440;2023-07-02T11:35:49;21.10;10.80
13198;DHT22;6664;52.514;13.440;2023-07-02T11:38:38;22.10;9.70
13198;DHT22;6664;52.514;13.440;2023-07-02T11:41:24;21.90;8.20
13198;DHT22;6664;52.514;13.440;2023-07-02T11:44:10;21.40;6.90
13198;DHT22;6664;52.514;13.440;2023-07-02T11:46:58;21.60;5.60
13198;DHT22;6664;52.514;13.440;2023-07-02T11:49:50;21.70;3.60
13198;DHT22;6664;52.514;13.440;2023-07-02T11:52:36;21.20;3.10
13198;DHT22;6664;52.514;13.440;2023-07-02T11:55:22;21.30;4.40
13198;DHT22;6664;52.514;13.440;2023-07-02T11:58:11;22.00;3.30
13198;DHT22;6664;52.514;13.440;2023-07-02T12:00:56;22.60;1.50
13198;DHT22;6664;52.514;13.440;2023-07-02T12:03:45;22.60;1.00
13198;DHT22;6664;52.514;13.440;2023-07-02T12:06:34;22.80;1.00
13198;DHT22;6664;52.514;13.440;2023-07-02T12:09:20;22.10;1.00
13198;DHT22;6664;52.514;13.440;2023-07-02T12:12:06;22.00;1.00
13198;DHT22;6664;52.514;13.440;2023-07-02T12:14:52;21.60;1.00
13198;DHT22;6664;52.514;13.440;2023-07-02T12:17:38;21.40;1.00
13198;DHT22;6664;52.514;13.440;2023-07-02T12:20:24;21.60;1.00
13198;DHT22;6664;52.514;13.440;2023-07-02T12:23:10;22.10;1.00
13198;DHT22;6664;52.514;13.440;2023-07-02T12:25:56;22.60;1.00
13198;DHT22;6664;52.514;13.440;2023-07-02T12:28:43;23.90;1.00
13198;DHT22;6664;52.514;13.440;2023-07-02T12:31:32;23.60;1.00
13198;DHT22;6664;52.514;13.440;2023-07-02T12:34:18;25.20;1.00
13198;DHT22;6664;52.514;13.440;2023-07-02T12:37:06;28.20;1.00
13198;DHT22;6664;52.514;13.440;2023-07-02T12:39:53;30.00;1.00
13198;DHT22;6664;52.514;13.440;2023-07-02T12:42:42;32.50;1.00
13198;DHT22;6664;52.514;13.440;2023-07-02T12:45:29;34.80;1.00
13198;DHT22;6664;52.514;13.440;2023-07-02T12:48:15;34.10;1.00
13198;DHT22;6664;52.514;13.440;2023-07-02T12:51:04;33.30;1.00
13198;DHT22;6664;52.514;13.440;2023-07-02T12:53:49;31.90;1.00
13198;DHT22;6664;52.514;13.440;2023-07-02T12:56:35;34.80;1.00
13198;DHT22;6664;52.514;13.440;2023-07-02T12:59:21;34.30;1.00
13198;DHT22;6664;52.514;13.440;2023-07-02T13:02:09;34.40;1.00
13198;DHT22;6664;52.514;13.440;2023-07-02T13:04:54;32.60;1.00
13198;DHT22;6664;52.514;13.440;2023-07-02T13:07:41;30.50;1.00
13198;DHT22;6664;52.514;13.440;2023-07-02T13:10:28;32.70;1.00
13198;DHT22;6664;52.514;13.440;2023-07-02T13:13:14;36.50;1.00
13198;DHT22;6664;52.514;13.440;2023-07-02T13:16:08;31.50;1.00
13198;DHT22;6664;52.514;13.440;2023-07-02T13:18:56;34.00;1.00
13198;DHT22;6664;52.514;13.440;2023-07-02T13:21:42;41.00;1.00
13198;DHT22;6664;52.514;13.440;2023-07-02T13:24:33;40.30;1.00
13198;DHT22;6664;52.514;13.440;2023-07-02T13:27:24;42.00;1.00
13198;DHT22;6664;52.514;13.440;2023-07-02T13:30:12;42.00;1.00
13198;DHT22;6664;52.514;13.440;2023-07-02T13:33:02;43.40;1.00
13198;DHT22;6664;52.514;13.440;2023-07-02T13:35:48;37.70;1.00
13198;DHT22;6664;52.514;13.440;2023-07-02T13:38:35;37.70;1.00
13198;DHT22;6664;52.514;13.440;2023-07-02T13:41:21;38.50;1.00
13198;DHT22;6664;52.514;13.440;2023-07-02T13:44:07;35.90;1.00
13198;DHT22;6664;52.514;13.440;2023-07-02T13:46:55;33.00;1.00
13198;DHT22;6664;52.514;13.440;2023-07-02T13:49:41;35.20;1.00
13198;DHT22;6664;52.514;13.440;2023-07-02T13:52:27;35.80;1.00
13198;DHT22;6664;52.514;13.440;2023-07-02T13:55:14;38.60;1.00
13198;DHT22;6664;52.514;13.440;2023-07-02T13:58:00;41.20;1.00
13198;DHT22;6664;52.514;13.440;2023-07-02T14:00:46;41.50;1.00
13198;DHT22;6664;52.514;13.440;2023-07-02T14:03:32;41.00;1.00
13198;DHT22;6664;52.514;13.440;2023-07-02T14:06:18;36.60;1.00
13198;DHT22;6664;52.514;13.440;2023-07-02T14:09:04;38.00;1.00
13198;DHT22;6664;52.514;13.440;2023-07-02T14:11:53;38.00;1.00
13198;DHT22;6664;52.514;13.440;2023-07-02T14:14:39;37.40;1.00
13198;DHT22;6664;52.514;13.440;2023-07-02T14:17:25;31.30;1.00
13198;DHT22;6664;52.514;13.440;2023-07-02T14:20:12;29.20;1.00
13198;DHT22;6664;52.514;13.440;2023-07-02T14:22:58;27.60;1.00
13198;DHT22;6664;52.514;13.440;2023-07-02T14:25:44;26.80;1.00
13198;DHT22;6664;52.514;13.440;2023-07-02T14:28:30;26.80;1.00
13198;DHT22;6664;52.514;13.440;2023-07-02T14:31:16;30.20;1.00
13198;DHT22;6664;52.514;13.440;2023-07-02T14:34:02;31.50;1.00
13198;DHT22;6664;52.514;13.440;2023-07-02T14:36:48;34.00;1.00
13198;DHT22;6664;52.514;13.440;2023-07-02T14:39:34;35.50;1.00
13198;DHT22;6664;52.514;13.440;2023-07-02T14:42:20;32.00;1.00
13198;DHT22;6664;52.514;13.440;2023-07-02T14:45:06;28.30;1.00
13198;DHT22;6664;52.514;13.440;2023-07-02T14:47:52;29.50;1.00
13198;DHT22;6664;52.514;13.440;2023-07-02T14:50:49;27.40;1.00
13198;DHT22;6664;52.514;13.440;2023-07-02T14:53:35;26.00;1.00
13198;DHT22;6664;52.514;13.440;2023-07-02T14:56:21;26.80;1.00
13198;DHT22;6664;52.514;13.440;2023-07-02T14:59:07;26.80;1.00
13198;DHT22;6664;52.514;13.440;2023-07-02T15:01:54;26.80;1.00
13198;DHT22;6664;52.514;13.440;2023-07-02T15:04:40;24.80;1.00
13198;DHT22;6664;52.514;13.440;2023-07-02T15:07:27;26.10;1.00
13198;DHT22;6664;52.514;13.440;2023-07-02T15:10:13;27.00;1.00
13198;DHT22;6664;52.514;13.440;2023-07-02T15:12:59;25.20;1.00
13198;DHT22;6664;52.514;13.440;2023-07-02T15:15:45;24.20;1.00
13198;DHT22;6664;52.514;13.440;2023-07-02T15:18:32;24.00;1.00
13198;DHT22;6664;52.514;13.440;2023-07-02T15:21:18;23.40;1.00
13198;DHT22;6664;52.514;13.440;2023-07-02T15:24:05;23.20;1.00
13198;DHT22;6664;52.514;13.440;2023-07-02T15:26:51;23.00;1.00
13198;DHT22;6664;52.514;13.440;2023-07-02T15:29:37;23.50;1.00
13198;DHT22;6664;52.514;13.440;2023-07-02T15:32:25;24.10;1.00
13198;DHT22;6664;52.514;13.440;2023-07-02T15:35:11;24.50;1.00
13198;DHT22;6664;52.514;13.440;2023-07-02T15:37:57;24.90;1.00
13198;DHT22;6664;52.514;13.440;2023-07-02T15:40:46;24.00;1.00
13198;DHT22;6664;52.514;13.440;2023-07-02T15:43:34;23.70;1.00
13198;DHT22;6664;52.514;13.440;2023-07-02T15:46:21;23.50;1.00
13198;DHT22;6664;52.514;13.440;2023-07-02T15:49:08;23.40;1.00
13198;DHT22;6664;52.514;13.440;2023-07-02T15:51:54;24.20;1.00
13198;DHT22;6664;52.514;13.440;2023-07-02T15:54:40;27.00;1.00
13198;DHT22;6664;52.514;13.440;2023-07-02T15:57:29;26.40;1.00
13198;DHT22;6664;52.514;13.440;2023-07-02T16:00:15;27.40;1.00
13198;DHT22;6664;52.514;13.440;2023-07-02T16:03:02;27.80;1.00
13198;DHT22;6664;52.514;13.440;2023-07-02T16:05:56;26.90;1.00
13198;DHT22;6664;52.514;13.440;2023-07-02T16:08:44;25.20;1.00
13198;DHT22;6664;52.514;13.440;2023-07-02T16:11:33;23.90;1.00
13198;DHT22;6664;52.514;13.440;2023-07-02T16:14:20;23.80;1.00
13198;DHT22;6664;52.514;13.440;2023-07-02T16:17:08;23.80;1.00
13198;DHT22;6664;52.514;13.440;2023-07-02T16:19:54;22.90;1.00
13198;DHT22;6664;52.514;13.440;2023-07-02T16:22:41;22.50;1.00
13198;DHT22;6664;52.514;13.440;2023-07-02T16:25:27;22.40;1.00
13198;DHT22;6664;52.514;13.440;2023-07-02T16:28:15;22.40;1.00
13198;DHT22;6664;52.514;13.440;2023-07-02T16:31:01;22.20;1.00
13198;DHT22;6664;52.514;13.440;2023-07-02T16:33:47;22.30;1.00
13198;DHT22;6664;52.514;13.440;2023-07-02T16:36:33;22.30;1.00
13198;DHT22;6664;52.514;13.440;2023-07-02T16:39:19;22.10;1.00
13198;DHT22;6664;52.514;13.440;2023-07-02T16:42:06;22.30;1.00
13198;DHT22;6664;52.514;13.440;2023-07-02T16:44:52;22.40;1.00
13198;DHT22;6664;52.514;13.440;2023-07-02T16:47:38;22.30;1.00
13198;DHT22;6664;52.514;13.440;2023-07-02T16:50:27;22.10;1.00
13198;DHT22;6664;52.514;13.440;2023-07-02T16:53:13;21.90;1.00
13198;DHT22;6664;52.514;13.440;2023-07-02T16:56:04;22.00;1.00
13198;DHT22;6664;52.514;13.440;2023-07-02T16:58:53;21.90;1.00
13198;DHT22;6664;52.514;13.440;2023-07-02T17:01:39;21.70;1.00
13198;DHT22;6664;52.514;13.440;2023-07-02T17:04:26;21.70;1.00
13198;DHT22;6664;52.514;13.440;2023-07-02T17:07:13;21.90;1.00
13198;DHT22;6664;52.514;13.440;2023-07-02T17:09:59;21.90;1.00
13198;DHT22;6664;52.514;13.440;2023-07-02T17:12:45;22.00;1.00
13198;DHT22;6664;52.514;13.440;2023-07-02T17:15:31;21.80;1.00
13198;DHT22;6664;52.514;13.440;2023-07-02T17:18:17;21.90;1.00
13198;DHT22;6664;52.514;13.440;2023-07-02T17:21:03;22.00;1.00
13198;DHT22;6664;52.514;13.440;2023-07-02T17:23:49;22.00;1.00
13198;DHT22;6664;52.514;13.440;2023-07-02T17:26:35;21.70;1.00
13198;DHT22;6664;52.514;13.440;2023-07-02T17:29:24;21.70;1.00
13198;DHT22;6664;52.514;13.440;2023-07-02T17:32:12;21.60;1.00
13198;DHT22;6664;52.514;13.440;2023-07-02T17:34:59;21.40;1.00
13198;DHT22;6664;52.514;13.440;2023-07-02T17:37:44;21.40;1.00
13198;DHT22;6664;52.514;13.440;2023-07-02T17:40:38;21.30;1.00
13198;DHT22;6664;52.514;13.440;2023-07-02T17:43:24;21.10;1.00